createdAt,value
2023-03-27T00:04:30.981Z,3.70
2023-03-27T00:11:31.853Z,3.60
2023-03-27T00:18:33.643Z,3.50
2023-03-27T00:25:35.127Z,3.50
2023-03-27T00:32:35.232Z,3.40
2023-03-27T00:39:35.525Z,3.30
2023-03-27T00:46:43.246Z,3.30
2023-03-27T00:53:46.064Z,3.20
2023-03-27T01:00:49.211Z,3.20
2023-03-27T01:08:00.224Z,3.10
2023-03-27T01:15:34.334Z,3.10
2023-03-27T01:23:08.854Z,3.00
2023-03-27T01:30:22.024Z,2.90
2023-03-27T01:37:50.153Z,2.90
2023-03-27T01:45:08.650Z,2.80
2023-03-27T01:52:14.909Z,2.80
2023-03-27T01:59:17.945Z,2.80
2023-03-27T02:06:43.607Z,2.70
2023-03-27T02:14:12.756Z,2.60
2023-03-27T02:21:14.378Z,2.60
2023-03-27T02:28:38.136Z,2.50
2023-03-27T02:35:46.002Z,2.40
2023-03-27T02:43:04.799Z,2.30
2023-03-27T02:50:16.331Z,2.20
2023-03-27T02:57:24.502Z,2.20
2023-03-27T03:04:56.972Z,2.10
2023-03-27T03:12:03.314Z,2.10
2023-03-27T03:19:11.823Z,2.00
2023-03-27T03:26:12.766Z,2.00
2023-03-27T03:33:20.788Z,2.00
2023-03-27T03:40:21.259Z,2.00
2023-03-27T03:47:24.175Z,1.90
2023-03-27T03:54:24.657Z,1.90
2023-03-27T04:01:26.036Z,1.80
2023-03-27T04:08:30.391Z,1.70
2023-03-27T04:15:37.416Z,1.70
2023-03-27T04:22:54.337Z,1.60
2023-03-27T04:29:55.676Z,1.60
2023-03-27T04:37:15.933Z,1.50
2023-03-27T04:44:30.552Z,1.50
2023-03-27T04:51:32.381Z,1.40
2023-03-27T04:58:36.738Z,1.40
2023-03-27T05:05:42.232Z,1.30
2023-03-27T05:12:47.904Z,1.30
2023-03-27T05:19:49.659Z,1.40
2023-03-27T05:26:49.957Z,1.40
2023-03-27T05:33:51.611Z,1.40
2023-03-27T05:40:52.651Z,1.40
2023-03-27T05:47:58.167Z,1.40
2023-03-27T05:54:59.735Z,1.50
2023-03-27T06:02:00.736Z,1.50
2023-03-27T06:09:15.321Z,1.60
2023-03-27T06:16:23.892Z,1.80
2023-03-27T06:23:33.540Z,1.90
2023-03-27T06:30:34.884Z,1.90
2023-03-27T06:37:55.807Z,2.00
2023-03-27T06:44:57.846Z,2.20
2023-03-27T06:52:17.593Z,2.40
2023-03-27T06:59:19.260Z,2.70
2023-03-27T07:06:31.402Z,2.80
2023-03-27T07:13:41.165Z,3.00
2023-03-27T07:20:48.034Z,3.30
2023-03-27T07:27:51.135Z,3.50
2023-03-27T07:34:51.749Z,3.60
2023-03-27T07:42:24.677Z,3.80
2023-03-27T07:49:39.718Z,3.90
2023-03-27T07:56:42.637Z,4.00
2023-03-27T08:04:03.898Z,4.20
2023-03-27T08:11:13.510Z,4.50
2023-03-27T08:18:20.626Z,4.70
2023-03-27T08:25:22.761Z,4.90
2023-03-27T08:32:23.514Z,5.00
2023-03-27T08:39:30.549Z,5.10
2023-03-27T08:46:51.441Z,5.30
2023-03-27T08:54:09.398Z,5.50
2023-03-27T09:01:29.437Z,5.70
2023-03-27T09:08:52.066Z,5.80
2023-03-27T09:16:07.613Z,5.90
2023-03-27T09:23:13.939Z,5.80
2023-03-27T09:30:40.912Z,5.90
2023-03-27T09:38:03.800Z,5.90
2023-03-27T09:45:10.005Z,6.10
2023-03-27T09:52:35.016Z,6.10
2023-03-27T09:59:59.167Z,6.50
2023-03-27T10:07:08.069Z,6.70
2023-03-27T10:14:26.038Z,6.90
2023-03-27T10:21:31.588Z,6.40
2023-03-27T10:28:36.349Z,6.30
2023-03-27T10:35:48.927Z,6.50
2023-03-27T10:42:59.392Z,6.50
2023-03-27T10:50:03.751Z,6.50
2023-03-27T10:57:34.243Z,6.60
2023-03-27T11:04:45.340Z,6.90
2023-03-27T11:12:02.141Z,7.00
2023-03-27T11:19:11.278Z,7.00
2023-03-27T11:26:45.713Z,7.10
2023-03-27T11:33:52.064Z,7.40
2023-03-27T11:40:52.882Z,7.30
2023-03-27T11:48:01.094Z,6.70
2023-03-27T11:55:10.411Z,6.20
2023-03-27T12:02:18.882Z,5.90
2023-03-27T12:10:06.953Z,5.60
2023-03-27T12:17:52.460Z,5.20
2023-03-27T12:25:29.294Z,5.10
2023-03-27T12:33:04.829Z,5.40
2023-03-27T12:40:29.180Z,5.90
2023-03-27T12:47:33.470Z,6.50
2023-03-27T12:54:40.472Z,6.90
2023-03-27T13:02:03.862Z,7.60
2023-03-27T13:09:35.630Z,8.00
2023-03-27T13:16:56.723Z,8.30
2023-03-27T13:24:19.671Z,7.40
2023-03-27T13:31:46.120Z,6.40
2023-03-27T13:39:06.455Z,5.40
2023-03-27T13:46:13.959Z,4.80
2023-03-27T13:53:36.153Z,4.70
2023-03-27T14:00:50.582Z,5.30
2023-03-27T14:08:15.104Z,6.00
2023-03-27T14:16:07.554Z,7.10
2023-03-27T14:23:16.551Z,8.00
2023-03-27T14:30:46.343Z,8.20
2023-03-27T14:38:24.791Z,7.60
2023-03-27T14:45:27.686Z,7.30
2023-03-27T14:52:35.130Z,8.10
2023-03-27T14:59:54.465Z,9.60
2023-03-27T15:07:13.037Z,10.40
2023-03-27T15:14:28.062Z,10.90
2023-03-27T15:21:44.915Z,10.90
2023-03-27T15:29:03.909Z,9.70
2023-03-27T15:36:22.325Z,8.40
2023-03-27T15:43:24.383Z,7.50
2023-03-27T15:50:26.419Z,8.00
2023-03-27T15:57:29.421Z,8.10
2023-03-27T16:04:47.955Z,7.60
2023-03-27T16:11:49.665Z,6.90
2023-03-27T16:18:51.129Z,6.40
2023-03-27T16:25:51.446Z,5.90
2023-03-27T16:32:52.309Z,5.90
2023-03-27T16:39:56.568Z,5.90
2023-03-27T16:46:56.857Z,5.80
2023-03-27T16:53:57.409Z,5.80
2023-03-27T17:00:57.951Z,5.70
2023-03-27T17:07:58.436Z,5.70
2023-03-27T17:14:58.886Z,5.70
2023-03-27T17:21:59.394Z,5.70
2023-03-27T17:28:59.927Z,5.60
2023-03-27T17:36:00.919Z,5.70
2023-03-27T17:43:01.875Z,5.60
2023-03-27T17:50:02.191Z,5.60
2023-03-27T17:57:04.762Z,5.60
2023-03-27T18:04:05.326Z,5.50
2023-03-27T18:11:13.738Z,5.40
2023-03-27T18:18:14.018Z,5.30
2023-03-27T18:25:14.620Z,5.30
2023-03-27T18:32:15.411Z,5.20
2023-03-27T18:39:15.561Z,5.10
2023-03-27T18:46:18.686Z,5.00
2023-03-27T18:53:18.862Z,4.80
2023-03-27T19:00:20.249Z,4.70
2023-03-27T19:07:20.915Z,4.60
2023-03-27T19:14:23.015Z,4.50
2023-03-27T19:21:46.618Z,4.40
2023-03-27T19:28:58.798Z,4.30
2023-03-27T19:35:58.984Z,4.20
2023-03-27T19:42:59.255Z,4.10
2023-03-27T19:49:59.727Z,4.00
2023-03-27T19:57:06.759Z,3.90
2023-03-27T20:04:07.114Z,3.80
2023-03-27T20:11:08.572Z,3.80
2023-03-27T20:18:09.186Z,3.70
2023-03-27T20:25:09.444Z,3.60
2023-03-27T20:32:10.493Z,3.50
2023-03-27T20:39:14.142Z,3.50
2023-03-27T20:46:14.837Z,3.40
2023-03-27T20:53:33.952Z,3.30
2023-03-27T21:00:35.540Z,3.20
2023-03-27T21:07:38.030Z,3.20
2023-03-27T21:14:38.900Z,3.10
2023-03-27T21:21:39.374Z,3.10
2023-03-27T21:28:40.121Z,3.10
2023-03-27T21:35:43.918Z,3.00
2023-03-27T21:42:44.082Z,2.90
2023-03-27T21:49:44.526Z,2.80
2023-03-27T21:56:45.161Z,2.80
2023-03-27T22:03:45.743Z,2.70
2023-03-27T22:10:46.406Z,2.70
2023-03-27T22:17:46.955Z,2.60
2023-03-27T22:24:47.403Z,2.50
2023-03-27T22:31:47.811Z,2.40
2023-03-27T22:38:48.779Z,2.40
2023-03-27T22:45:48.841Z,2.20
2023-03-27T22:52:49.211Z,2.30
2023-03-27T22:59:50.844Z,2.30
2023-03-27T23:06:51.345Z,2.20
2023-03-27T23:13:51.542Z,2.20
2023-03-27T23:21:00.258Z,2.10
2023-03-27T23:28:00.395Z,2.10
2023-03-27T23:35:00.844Z,2.00
2023-03-27T23:42:01.105Z,2.10
2023-03-27T23:49:01.561Z,2.00
2023-03-27T23:56:02.901Z,2.00
